MSR839 HECA-OEJN
Flight info
| Callsign | MSR839 |
|---|---|
| Flight time | 1h 46m |
| Altitude | 37000 |
| Route | HECA/05C CVO A727 NABED T55 DEDLU M999 MUVOL |
| Aircraft | A320/M-SDE3FGHIRWY/LB1 |
Departure
| Time | 2026-04-29 12:20 |
|---|---|
| Airport | Cairo International Airport (HECA) |
Arrival
| Time | 2026-04-29 14:06 |
|---|---|
| Airport | King Abdulaziz International Airport (OEJN) |
| Time | Latitude | Longitude | Altitude | Speed | Heading |
|---|---|---|---|---|---|
| 2026-04-29 11:41 | 30.10851 | 31.39856 | 370 ft | 0 kts | 76° |
| 2026-04-29 12:11 | 30.10849 | 31.39850 | 370 ft | 4 kts | 75° |
| 2026-04-29 12:11 | 30.10843 | 31.39821 | 370 ft | 2 kts | 75° |
| 2026-04-29 12:12 | 30.10836 | 31.39796 | 370 ft | 4 kts | 63° |
| 2026-04-29 12:12 | 30.10822 | 31.39769 | 370 ft | 4 kts | 59° |
| 2026-04-29 12:12 | 30.10814 | 31.39746 | 370 ft | 3 kts | 120° |
| 2026-04-29 12:12 | 30.10818 | 31.39739 | 370 ft | 0 kts | 129° |
| 2026-04-29 12:15 | 30.10804 | 31.39756 | 370 ft | 6 kts | 139° |
| 2026-04-29 12:15 | 30.10747 | 31.39783 | 370 ft | 11 kts | 165° |
| 2026-04-29 12:16 | 30.10666 | 31.39808 | 370 ft | 13 kts | 165° |
| 2026-04-29 12:16 | 30.10576 | 31.39834 | 373 ft | 13 kts | 166° |
| 2026-04-29 12:16 | 30.10494 | 31.39859 | 377 ft | 12 kts | 165° |
| 2026-04-29 12:16 | 30.10422 | 31.39868 | 380 ft | 10 kts | 197° |
| 2026-04-29 12:17 | 30.10362 | 31.39800 | 381 ft | 16 kts | 229° |
| 2026-04-29 12:17 | 30.10287 | 31.39700 | 385 ft | 16 kts | 230° |
| 2026-04-29 12:17 | 30.10213 | 31.39601 | 388 ft | 16 kts | 227° |
| 2026-04-29 12:17 | 30.10128 | 31.39581 | 389 ft | 12 kts | 144° |
| 2026-04-29 12:18 | 30.10061 | 31.39649 | 389 ft | 13 kts | 137° |
| 2026-04-29 12:18 | 30.10002 | 31.39737 | 388 ft | 15 kts | 106° |
| 2026-04-29 12:18 | 30.10007 | 31.39863 | 388 ft | 14 kts | 82° |
| 2026-04-29 12:18 | 30.10029 | 31.39912 | 388 ft | 0 kts | 50° |
| 2026-04-29 12:19 | 30.10037 | 31.39922 | 388 ft | 11 kts | 49° |
| 2026-04-29 12:19 | 30.10268 | 31.40230 | 389 ft | 89 kts | 49° |
| 2026-04-29 12:19 | 30.10823 | 31.40966 | 388 ft | 150 kts | 49° |
| 2026-04-29 12:19 | 30.11589 | 31.42003 | 657 ft | 177 kts | 50° |
| 2026-04-29 12:20 | 30.12307 | 31.43156 | 1415 ft | 178 kts | 66° |
| 2026-04-29 12:20 | 30.12450 | 31.44605 | 1785 ft | 194 kts | 105° |
| 2026-04-29 12:20 | 30.11731 | 31.45981 | 1986 ft | 214 kts | 142° |
| 2026-04-29 12:20 | 30.10352 | 31.46810 | 2261 ft | 235 kts | 162° |
| 2026-04-29 12:21 | 30.08744 | 31.47419 | 2628 ft | 259 kts | 165° |
| 2026-04-29 12:21 | 30.06963 | 31.48024 | 3250 ft | 272 kts | 165° |
| 2026-04-29 12:21 | 30.05117 | 31.48631 | 4093 ft | 278 kts | 165° |
| 2026-04-29 12:21 | 30.03243 | 31.49239 | 4982 ft | 281 kts | 165° |
| 2026-04-29 12:22 | 30.01338 | 31.49786 | 5885 ft | 284 kts | 174° |
| 2026-04-29 12:22 | 29.99358 | 31.49943 | 6768 ft | 286 kts | 178° |
| 2026-04-29 12:22 | 29.97356 | 31.50071 | 7601 ft | 290 kts | 178° |
| 2026-04-29 12:22 | 29.95332 | 31.50200 | 8422 ft | 294 kts | 178° |
| 2026-04-29 12:23 | 29.93280 | 31.50334 | 9213 ft | 297 kts | 178° |
| 2026-04-29 12:23 | 29.91205 | 31.50469 | 10000 ft | 300 kts | 178° |
| 2026-04-29 12:23 | 29.89096 | 31.50605 | 10433 ft | 318 kts | 178° |
| 2026-04-29 12:23 | 29.86806 | 31.50751 | 10621 ft | 341 kts | 178° |
| 2026-04-29 12:24 | 29.84383 | 31.50905 | 11063 ft | 354 kts | 178° |
| 2026-04-29 12:24 | 29.81908 | 31.51065 | 11700 ft | 358 kts | 178° |
| 2026-04-29 12:24 | 29.79409 | 31.51228 | 12408 ft | 362 kts | 179° |
| 2026-04-29 12:24 | 29.76882 | 31.51391 | 13081 ft | 366 kts | 179° |
| 2026-04-29 12:25 | 29.74324 | 31.51554 | 13702 ft | 370 kts | 179° |
| 2026-04-29 12:25 | 29.71734 | 31.51717 | 14299 ft | 375 kts | 179° |
| 2026-04-29 12:25 | 29.66540 | 31.52962 | 15429 ft | 389 kts | 166° |
| 2026-04-29 12:26 | 29.63924 | 31.53824 | 15982 ft | 393 kts | 167° |
| 2026-04-29 12:26 | 29.61275 | 31.54694 | 16525 ft | 398 kts | 167° |
| 2026-04-29 12:26 | 29.58636 | 31.55556 | 17055 ft | 402 kts | 167° |
| 2026-04-29 12:26 | 29.55925 | 31.56440 | 17577 ft | 408 kts | 167° |
| 2026-04-29 12:27 | 29.53181 | 31.57335 | 18119 ft | 412 kts | 168° |
| 2026-04-29 12:27 | 29.50407 | 31.58243 | 18645 ft | 417 kts | 168° |
| 2026-04-29 12:27 | 29.47612 | 31.59157 | 19212 ft | 420 kts | 168° |
| 2026-04-29 12:27 | 29.44783 | 31.60083 | 19788 ft | 424 kts | 168° |
| 2026-04-29 12:28 | 29.41932 | 31.61016 | 20347 ft | 428 kts | 168° |
| 2026-04-29 12:28 | 29.39059 | 31.61955 | 20903 ft | 431 kts | 168° |
| 2026-04-29 12:28 | 29.36197 | 31.62886 | 21413 ft | 435 kts | 169° |
| 2026-04-29 12:28 | 29.33272 | 31.63835 | 21910 ft | 438 kts | 169° |
| 2026-04-29 12:29 | 29.30326 | 31.64793 | 22375 ft | 442 kts | 169° |
| 2026-04-29 12:29 | 29.27357 | 31.65759 | 22825 ft | 445 kts | 169° |
| 2026-04-29 12:29 | 29.24371 | 31.66732 | 23259 ft | 448 kts | 169° |
| 2026-04-29 12:29 | 29.21361 | 31.67713 | 23693 ft | 451 kts | 169° |
| 2026-04-29 12:30 | 29.18331 | 31.68698 | 24125 ft | 454 kts | 169° |
| 2026-04-29 12:30 | 29.15282 | 31.69687 | 24528 ft | 457 kts | 170° |
| 2026-04-29 12:30 | 29.12211 | 31.70680 | 24905 ft | 460 kts | 170° |
| 2026-04-29 12:30 | 29.09159 | 31.71666 | 25263 ft | 463 kts | 170° |
| 2026-04-29 12:31 | 29.06046 | 31.72672 | 25629 ft | 466 kts | 170° |
| 2026-04-29 12:31 | 29.02915 | 31.73683 | 25996 ft | 469 kts | 170° |
| 2026-04-29 12:31 | 28.99762 | 31.74701 | 26333 ft | 472 kts | 170° |
| 2026-04-29 12:31 | 28.96596 | 31.75724 | 26661 ft | 475 kts | 170° |
| 2026-04-29 12:32 | 28.93404 | 31.76750 | 27013 ft | 478 kts | 170° |
| 2026-04-29 12:32 | 28.90195 | 31.77775 | 27350 ft | 480 kts | 171° |
| 2026-04-29 12:32 | 28.86967 | 31.78799 | 27662 ft | 483 kts | 171° |
| 2026-04-29 12:32 | 28.83761 | 31.79814 | 27968 ft | 486 kts | 171° |
| 2026-04-29 12:33 | 28.80493 | 31.80848 | 28285 ft | 489 kts | 171° |
| 2026-04-29 12:33 | 28.77206 | 31.81889 | 28578 ft | 491 kts | 171° |
| 2026-04-29 12:33 | 28.73902 | 31.82931 | 28879 ft | 494 kts | 171° |
| 2026-04-29 12:33 | 28.70581 | 31.83978 | 29174 ft | 496 kts | 171° |
| 2026-04-29 12:34 | 28.67252 | 31.85031 | 29561 ft | 496 kts | 171° |
| 2026-04-29 12:34 | 28.63928 | 31.86089 | 29997 ft | 495 kts | 171° |
| 2026-04-29 12:34 | 28.60610 | 31.87147 | 30418 ft | 495 kts | 171° |
| 2026-04-29 12:34 | 28.57305 | 31.88198 | 30845 ft | 494 kts | 171° |
| 2026-04-29 12:35 | 28.54002 | 31.89248 | 31283 ft | 492 kts | 171° |
| 2026-04-29 12:35 | 28.50755 | 31.90276 | 31743 ft | 490 kts | 171° |
| 2026-04-29 12:35 | 28.47478 | 31.91309 | 32221 ft | 488 kts | 171° |
| 2026-04-29 12:35 | 28.44216 | 31.92339 | 32723 ft | 484 kts | 172° |
| 2026-04-29 12:36 | 28.40985 | 31.93357 | 33206 ft | 481 kts | 172° |
| 2026-04-29 12:36 | 28.37765 | 31.94369 | 33669 ft | 479 kts | 172° |
| 2026-04-29 12:36 | 28.34562 | 31.95377 | 34118 ft | 476 kts | 172° |
| 2026-04-29 12:36 | 28.31374 | 31.96381 | 34543 ft | 474 kts | 172° |
| 2026-04-29 12:37 | 28.28196 | 31.97378 | 34921 ft | 473 kts | 173° |
| 2026-04-29 12:37 | 28.25066 | 31.98355 | 35274 ft | 472 kts | 173° |
| 2026-04-29 12:37 | 28.21902 | 31.99345 | 35613 ft | 471 kts | 173° |
| 2026-04-29 12:37 | 28.18744 | 32.00339 | 35929 ft | 471 kts | 173° |
| 2026-04-29 12:38 | 28.15590 | 32.01332 | 36230 ft | 470 kts | 173° |
| 2026-04-29 12:38 | 28.12439 | 32.02319 | 36518 ft | 470 kts | 173° |
| 2026-04-29 12:38 | 28.09292 | 32.03305 | 36817 ft | 468 kts | 173° |
| 2026-04-29 12:38 | 28.06164 | 32.04286 | 37003 ft | 466 kts | 174° |
| 2026-04-29 12:39 | 28.03027 | 32.05263 | 37039 ft | 469 kts | 174° |
| 2026-04-29 12:39 | 27.96765 | 32.07241 | 37032 ft | 471 kts | 173° |
| 2026-04-29 12:40 | 27.90455 | 32.09275 | 37041 ft | 472 kts | 173° |
| 2026-04-29 12:40 | 27.84145 | 32.11309 | 37036 ft | 471 kts | 173° |
| 2026-04-29 12:41 | 27.77840 | 32.13323 | 37036 ft | 471 kts | 173° |
| 2026-04-29 12:41 | 27.71523 | 32.15333 | 37040 ft | 472 kts | 174° |
| 2026-04-29 12:42 | 27.65240 | 32.17332 | 37048 ft | 472 kts | 173° |
| 2026-04-29 12:42 | 27.58915 | 32.19341 | 37054 ft | 472 kts | 174° |
| 2026-04-29 12:43 | 27.52588 | 32.21350 | 37055 ft | 472 kts | 174° |
| 2026-04-29 12:43 | 27.46273 | 32.23356 | 36994 ft | 470 kts | 174° |
| 2026-04-29 12:44 | 27.40015 | 32.25337 | 36982 ft | 470 kts | 174° |
| 2026-04-29 12:44 | 27.33739 | 32.27488 | 36981 ft | 480 kts | 166° |
| 2026-04-29 12:44 | 27.30742 | 32.29237 | 36978 ft | 493 kts | 155° |
| 2026-04-29 12:45 | 27.27986 | 32.31601 | 36977 ft | 504 kts | 144° |
| 2026-04-29 12:45 | 27.23321 | 32.37621 | 36977 ft | 513 kts | 136° |
| 2026-04-29 12:46 | 27.18775 | 32.43819 | 36975 ft | 514 kts | 136° |
| 2026-04-29 12:46 | 27.14243 | 32.49958 | 36975 ft | 514 kts | 136° |
| 2026-04-29 12:47 | 27.09678 | 32.56150 | 36980 ft | 515 kts | 136° |
| 2026-04-29 12:47 | 27.05111 | 32.62345 | 36981 ft | 515 kts | 136° |
| 2026-04-29 12:48 | 27.00533 | 32.68534 | 36988 ft | 515 kts | 136° |
| 2026-04-29 12:48 | 26.95986 | 32.74673 | 36993 ft | 515 kts | 137° |
| 2026-04-29 12:49 | 26.91397 | 32.80859 | 37001 ft | 516 kts | 137° |
| 2026-04-29 12:49 | 26.86809 | 32.87036 | 37007 ft | 516 kts | 137° |
| 2026-04-29 12:50 | 26.82217 | 32.93205 | 37008 ft | 515 kts | 137° |
| 2026-04-29 12:50 | 26.77624 | 32.99373 | 37007 ft | 516 kts | 137° |
| 2026-04-29 12:51 | 26.73064 | 33.05491 | 37007 ft | 516 kts | 137° |
| 2026-04-29 12:51 | 26.68465 | 33.11656 | 37008 ft | 516 kts | 137° |
| 2026-04-29 12:52 | 26.63865 | 33.17810 | 37003 ft | 516 kts | 137° |
| 2026-04-29 12:52 | 26.59258 | 33.23957 | 37001 ft | 516 kts | 137° |
| 2026-04-29 12:53 | 26.54679 | 33.30048 | 36997 ft | 516 kts | 137° |
| 2026-04-29 12:53 | 26.50070 | 33.36198 | 36995 ft | 516 kts | 138° |
| 2026-04-29 12:54 | 26.45455 | 33.42340 | 36998 ft | 516 kts | 138° |
| 2026-04-29 12:54 | 26.40831 | 33.48475 | 36996 ft | 516 kts | 138° |
| 2026-04-29 12:55 | 26.36238 | 33.54556 | 36997 ft | 516 kts | 139° |
| 2026-04-29 12:55 | 26.31615 | 33.60670 | 36999 ft | 516 kts | 139° |
| 2026-04-29 12:56 | 26.26997 | 33.66789 | 36990 ft | 516 kts | 139° |
| 2026-04-29 12:56 | 26.22375 | 33.72905 | 36985 ft | 516 kts | 139° |
| 2026-04-29 12:57 | 26.17751 | 33.79014 | 36985 ft | 515 kts | 139° |
| 2026-04-29 12:57 | 26.13157 | 33.85063 | 36980 ft | 515 kts | 139° |
| 2026-04-29 12:58 | 26.08517 | 33.91156 | 36977 ft | 516 kts | 139° |
| 2026-04-29 12:58 | 26.03877 | 33.97252 | 36975 ft | 516 kts | 139° |
| 2026-04-29 12:59 | 25.99237 | 34.03334 | 36974 ft | 516 kts | 139° |
| 2026-04-29 12:59 | 25.94621 | 34.09385 | 36974 ft | 517 kts | 139° |
| 2026-04-29 13:00 | 25.89978 | 34.15479 | 36972 ft | 516 kts | 139° |
| 2026-04-29 13:00 | 25.85333 | 34.21560 | 36973 ft | 516 kts | 139° |
| 2026-04-29 13:01 | 25.80684 | 34.27631 | 36970 ft | 516 kts | 139° |
| 2026-04-29 13:01 | 25.76031 | 34.33691 | 36967 ft | 516 kts | 139° |
| 2026-04-29 13:02 | 25.71413 | 34.39698 | 36975 ft | 515 kts | 139° |
| 2026-04-29 13:02 | 25.66764 | 34.45750 | 36974 ft | 515 kts | 139° |
| 2026-04-29 13:03 | 25.62112 | 34.51793 | 36971 ft | 515 kts | 139° |
| 2026-04-29 13:03 | 25.57439 | 34.57792 | 36971 ft | 512 kts | 141° |
| 2026-04-29 13:04 | 25.52544 | 34.63378 | 36967 ft | 506 kts | 145° |
| 2026-04-29 13:04 | 25.47456 | 34.68723 | 36969 ft | 504 kts | 146° |
| 2026-04-29 13:05 | 25.42387 | 34.74090 | 36965 ft | 505 kts | 145° |
| 2026-04-29 13:05 | 25.37384 | 34.79550 | 36967 ft | 505 kts | 144° |
| 2026-04-29 13:06 | 25.32415 | 34.85033 | 36966 ft | 504 kts | 144° |
| 2026-04-29 13:06 | 25.27470 | 34.90448 | 36967 ft | 504 kts | 144° |
| 2026-04-29 13:07 | 25.22479 | 34.95872 | 36968 ft | 503 kts | 145° |
| 2026-04-29 13:07 | 25.17498 | 35.01278 | 36964 ft | 502 kts | 145° |
| 2026-04-29 13:08 | 25.12522 | 35.06691 | 36964 ft | 502 kts | 144° |
| 2026-04-29 13:08 | 25.07582 | 35.12043 | 36961 ft | 501 kts | 145° |
| 2026-04-29 13:09 | 25.02604 | 35.17421 | 36959 ft | 500 kts | 145° |
| 2026-04-29 13:09 | 24.97631 | 35.22769 | 36956 ft | 500 kts | 145° |
| 2026-04-29 13:10 | 24.92653 | 35.28106 | 36956 ft | 499 kts | 145° |
| 2026-04-29 13:10 | 24.87702 | 35.33402 | 36951 ft | 499 kts | 145° |
| 2026-04-29 13:11 | 24.82733 | 35.38728 | 36946 ft | 498 kts | 145° |
| 2026-04-29 13:11 | 24.77758 | 35.44041 | 36945 ft | 498 kts | 145° |
| 2026-04-29 13:12 | 24.72785 | 35.49345 | 36945 ft | 498 kts | 145° |
| 2026-04-29 13:12 | 24.67855 | 35.54625 | 36943 ft | 497 kts | 145° |
| 2026-04-29 13:13 | 24.62892 | 35.59915 | 36941 ft | 497 kts | 145° |
| 2026-04-29 13:13 | 24.57924 | 35.65194 | 36939 ft | 496 kts | 145° |
| 2026-04-29 13:14 | 24.52958 | 35.70470 | 36938 ft | 496 kts | 145° |
| 2026-04-29 13:14 | 24.48030 | 35.75692 | 36934 ft | 495 kts | 145° |
| 2026-04-29 13:15 | 24.43079 | 35.80948 | 36932 ft | 495 kts | 145° |
| 2026-04-29 13:15 | 24.38138 | 35.86202 | 36930 ft | 494 kts | 145° |
| 2026-04-29 13:16 | 24.33193 | 35.91437 | 36923 ft | 494 kts | 145° |
| 2026-04-29 13:16 | 24.28283 | 35.96625 | 36925 ft | 494 kts | 145° |
| 2026-04-29 13:17 | 24.23331 | 36.01845 | 36911 ft | 493 kts | 145° |
| 2026-04-29 13:17 | 24.18384 | 36.07050 | 36921 ft | 493 kts | 145° |
| 2026-04-29 13:18 | 24.13438 | 36.12259 | 36910 ft | 493 kts | 145° |
| 2026-04-29 13:18 | 24.08532 | 36.17437 | 36913 ft | 493 kts | 145° |
| 2026-04-29 13:19 | 24.03588 | 36.22641 | 36932 ft | 493 kts | 145° |
| 2026-04-29 13:19 | 23.98644 | 36.27827 | 36934 ft | 493 kts | 145° |
| 2026-04-29 13:20 | 23.93695 | 36.33009 | 36885 ft | 491 kts | 145° |
| 2026-04-29 13:20 | 23.88791 | 36.38139 | 36883 ft | 491 kts | 145° |
| 2026-04-29 13:21 | 23.83861 | 36.43306 | 36880 ft | 491 kts | 145° |
| 2026-04-29 13:21 | 23.78922 | 36.48470 | 36880 ft | 491 kts | 145° |
| 2026-04-29 13:22 | 23.73981 | 36.53630 | 36877 ft | 491 kts | 145° |
| 2026-04-29 13:22 | 23.69077 | 36.58744 | 36871 ft | 491 kts | 145° |
| 2026-04-29 13:23 | 23.64143 | 36.63887 | 36869 ft | 490 kts | 144° |
| 2026-04-29 13:23 | 23.59212 | 36.69019 | 36866 ft | 490 kts | 144° |
| 2026-04-29 13:24 | 23.54288 | 36.74144 | 36865 ft | 489 kts | 144° |
| 2026-04-29 13:24 | 23.49393 | 36.79226 | 36864 ft | 489 kts | 144° |
| 2026-04-29 13:25 | 23.44469 | 36.84336 | 36866 ft | 489 kts | 144° |
| 2026-04-29 13:25 | 23.37078 | 36.91985 | 36865 ft | 488 kts | 144° |
| 2026-04-29 13:26 | 23.32197 | 36.97040 | 36865 ft | 488 kts | 144° |
| 2026-04-29 13:26 | 23.27281 | 37.02124 | 36866 ft | 487 kts | 144° |
| 2026-04-29 13:27 | 23.22372 | 37.07190 | 36867 ft | 486 kts | 144° |
| 2026-04-29 13:27 | 23.17464 | 37.12242 | 36866 ft | 486 kts | 144° |
| 2026-04-29 13:28 | 23.12596 | 37.17268 | 36867 ft | 486 kts | 144° |
| 2026-04-29 13:28 | 23.07690 | 37.22322 | 36867 ft | 486 kts | 144° |
| 2026-04-29 13:29 | 23.02783 | 37.27360 | 36867 ft | 485 kts | 144° |
| 2026-04-29 13:29 | 22.97881 | 37.32388 | 36867 ft | 485 kts | 144° |
| 2026-04-29 13:30 | 22.93011 | 37.37374 | 36866 ft | 484 kts | 144° |
| 2026-04-29 13:30 | 22.88118 | 37.42399 | 36865 ft | 484 kts | 144° |
| 2026-04-29 13:31 | 22.83222 | 37.47403 | 36863 ft | 483 kts | 144° |
| 2026-04-29 13:31 | 22.78325 | 37.52394 | 36865 ft | 483 kts | 144° |
| 2026-04-29 13:32 | 22.73796 | 37.57765 | 36863 ft | 494 kts | 131° |
| 2026-04-29 13:32 | 22.69823 | 37.63821 | 36863 ft | 493 kts | 131° |
| 2026-04-29 13:33 | 22.65851 | 37.69874 | 36869 ft | 493 kts | 131° |
| 2026-04-29 13:33 | 22.61886 | 37.75929 | 36873 ft | 493 kts | 131° |
| 2026-04-29 13:34 | 22.57951 | 37.81930 | 36875 ft | 492 kts | 131° |
| 2026-04-29 13:34 | 22.53983 | 37.87966 | 36872 ft | 492 kts | 131° |
| 2026-04-29 13:35 | 22.50021 | 37.93990 | 36873 ft | 491 kts | 131° |
| 2026-04-29 13:35 | 22.46063 | 38.00007 | 36874 ft | 491 kts | 131° |
| 2026-04-29 13:36 | 22.42101 | 38.06006 | 36872 ft | 490 kts | 131° |
| 2026-04-29 13:36 | 22.40151 | 38.08952 | 36662 ft | 489 kts | 131° |
| 2026-04-29 13:36 | 22.38175 | 38.11935 | 36412 ft | 488 kts | 131° |
| 2026-04-29 13:37 | 22.36196 | 38.14924 | 36160 ft | 490 kts | 131° |
| 2026-04-29 13:37 | 22.34209 | 38.17930 | 35811 ft | 493 kts | 131° |
| 2026-04-29 13:37 | 22.32203 | 38.20963 | 34894 ft | 500 kts | 131° |
| 2026-04-29 13:37 | 22.30173 | 38.24028 | 34025 ft | 504 kts | 131° |
| 2026-04-29 13:38 | 22.28125 | 38.27115 | 33097 ft | 509 kts | 131° |
| 2026-04-29 13:38 | 22.26052 | 38.30239 | 32123 ft | 514 kts | 131° |
| 2026-04-29 13:38 | 22.23990 | 38.33347 | 31164 ft | 518 kts | 131° |
| 2026-04-29 13:38 | 22.21906 | 38.36493 | 30615 ft | 511 kts | 131° |
| 2026-04-29 13:39 | 22.19839 | 38.39595 | 29974 ft | 507 kts | 132° |
| 2026-04-29 13:39 | 22.17736 | 38.42635 | 29314 ft | 503 kts | 133° |
| 2026-04-29 13:39 | 22.15606 | 38.45605 | 28659 ft | 499 kts | 133° |
| 2026-04-29 13:39 | 22.13462 | 38.48530 | 28000 ft | 495 kts | 134° |
| 2026-04-29 13:40 | 22.11329 | 38.51421 | 27355 ft | 491 kts | 133° |
| 2026-04-29 13:40 | 22.09246 | 38.54262 | 26736 ft | 474 kts | 132° |
| 2026-04-29 13:40 | 22.07091 | 38.56796 | 26551 ft | 441 kts | 146° |
| 2026-04-29 13:40 | 22.04606 | 38.58503 | 26235 ft | 412 kts | 163° |
| 2026-04-29 13:41 | 22.01988 | 38.59314 | 25862 ft | 385 kts | 181° |
| 2026-04-29 13:41 | 21.99336 | 38.59327 | 25494 ft | 378 kts | 195° |
| 2026-04-29 13:41 | 21.96828 | 38.58633 | 24871 ft | 369 kts | 210° |
| 2026-04-29 13:41 | 21.94567 | 38.57370 | 24260 ft | 367 kts | 214° |
| 2026-04-29 13:42 | 21.92165 | 38.56354 | 23758 ft | 375 kts | 204° |
| 2026-04-29 13:42 | 21.89656 | 38.55548 | 23343 ft | 374 kts | 202° |
| 2026-04-29 13:42 | 21.87171 | 38.54794 | 22976 ft | 370 kts | 202° |
| 2026-04-29 13:42 | 21.84659 | 38.54173 | 22558 ft | 373 kts | 193° |
| 2026-04-29 13:43 | 21.82058 | 38.54083 | 22098 ft | 375 kts | 179° |
| 2026-04-29 13:43 | 21.79551 | 38.54747 | 21401 ft | 380 kts | 160° |
| 2026-04-29 13:43 | 21.77365 | 38.56347 | 20769 ft | 386 kts | 136° |
| 2026-04-29 13:43 | 21.75905 | 38.58773 | 20264 ft | 387 kts | 110° |
| 2026-04-29 13:44 | 21.75437 | 38.61587 | 19768 ft | 384 kts | 88° |
| 2026-04-29 13:44 | 21.75586 | 38.64453 | 19263 ft | 385 kts | 85° |
| 2026-04-29 13:44 | 21.75770 | 38.67307 | 18798 ft | 378 kts | 85° |
| 2026-04-29 13:44 | 21.75955 | 38.70113 | 18338 ft | 375 kts | 85° |
| 2026-04-29 13:45 | 21.76136 | 38.72899 | 17895 ft | 372 kts | 86° |
| 2026-04-29 13:45 | 21.76308 | 38.75630 | 17460 ft | 370 kts | 86° |
| 2026-04-29 13:45 | 21.76478 | 38.78375 | 17004 ft | 366 kts | 86° |
| 2026-04-29 13:45 | 21.76642 | 38.81090 | 16603 ft | 363 kts | 87° |
| 2026-04-29 13:46 | 21.76801 | 38.83791 | 16235 ft | 360 kts | 87° |
| 2026-04-29 13:46 | 21.76960 | 38.86461 | 15866 ft | 355 kts | 87° |
| 2026-04-29 13:46 | 21.77117 | 38.89097 | 15491 ft | 351 kts | 87° |
| 2026-04-29 13:46 | 21.77271 | 38.91704 | 15113 ft | 347 kts | 87° |
| 2026-04-29 13:47 | 21.77424 | 38.94251 | 14747 ft | 340 kts | 87° |
| 2026-04-29 13:47 | 21.77575 | 38.96745 | 14437 ft | 327 kts | 88° |
| 2026-04-29 13:47 | 21.77509 | 38.99112 | 14214 ft | 307 kts | 103° |
| 2026-04-29 13:47 | 21.77098 | 39.01300 | 14036 ft | 291 kts | 104° |
| 2026-04-29 13:48 | 21.76694 | 39.03404 | 13866 ft | 286 kts | 104° |
| 2026-04-29 13:48 | 21.76427 | 39.04787 | 13711 ft | 284 kts | 104° |
| 2026-04-29 13:48 | 21.76027 | 39.06862 | 13419 ft | 283 kts | 104° |
| 2026-04-29 13:48 | 21.75497 | 39.09616 | 12993 ft | 283 kts | 104° |
| 2026-04-29 13:49 | 21.75106 | 39.11660 | 12659 ft | 276 kts | 104° |
| 2026-04-29 13:49 | 21.74724 | 39.13666 | 12339 ft | 272 kts | 104° |
| 2026-04-29 13:49 | 21.74344 | 39.15642 | 12014 ft | 268 kts | 104° |
| 2026-04-29 13:49 | 21.73966 | 39.17595 | 11686 ft | 265 kts | 105° |
| 2026-04-29 13:50 | 21.73717 | 39.18879 | 11472 ft | 264 kts | 104° |
| 2026-04-29 13:50 | 21.73343 | 39.20807 | 11149 ft | 265 kts | 104° |
| 2026-04-29 13:50 | 21.72958 | 39.22752 | 10819 ft | 264 kts | 108° |
| 2026-04-29 13:50 | 21.71830 | 39.25033 | 10383 ft | 257 kts | 136° |
| 2026-04-29 13:51 | 21.70464 | 39.26186 | 10067 ft | 252 kts | 156° |
| 2026-04-29 13:51 | 21.68851 | 39.26876 | 9749 ft | 249 kts | 163° |
| 2026-04-29 13:51 | 21.67218 | 39.27512 | 9421 ft | 250 kts | 163° |
| 2026-04-29 13:51 | 21.65582 | 39.28154 | 9094 ft | 250 kts | 163° |
| 2026-04-29 13:52 | 21.63948 | 39.28798 | 8770 ft | 250 kts | 163° |
| 2026-04-29 13:52 | 21.62873 | 39.29225 | 8586 ft | 249 kts | 162° |
| 2026-04-29 13:52 | 21.61246 | 39.29867 | 8343 ft | 249 kts | 163° |
| 2026-04-29 13:52 | 21.59622 | 39.30504 | 8090 ft | 248 kts | 163° |
| 2026-04-29 13:53 | 21.57479 | 39.31344 | 7763 ft | 247 kts | 163° |
| 2026-04-29 13:53 | 21.56390 | 39.31769 | 7600 ft | 246 kts | 163° |
| 2026-04-29 13:53 | 21.54781 | 39.32395 | 7352 ft | 246 kts | 163° |
| 2026-04-29 13:53 | 21.52655 | 39.33221 | 7021 ft | 244 kts | 162° |
| 2026-04-29 13:54 | 21.51598 | 39.33636 | 6854 ft | 243 kts | 163° |
| 2026-04-29 13:54 | 21.50011 | 39.34260 | 6605 ft | 243 kts | 163° |
| 2026-04-29 13:54 | 21.48428 | 39.34883 | 6351 ft | 242 kts | 162° |
| 2026-04-29 13:54 | 21.46845 | 39.35505 | 6100 ft | 242 kts | 163° |
| 2026-04-29 13:55 | 21.45268 | 39.36121 | 5853 ft | 241 kts | 162° |
| 2026-04-29 13:55 | 21.43701 | 39.36736 | 5605 ft | 240 kts | 163° |
| 2026-04-29 13:55 | 21.42135 | 39.37354 | 5353 ft | 239 kts | 162° |
| 2026-04-29 13:55 | 21.40598 | 39.37959 | 5104 ft | 238 kts | 162° |
| 2026-04-29 13:56 | 21.39042 | 39.38568 | 4857 ft | 238 kts | 163° |
| 2026-04-29 13:56 | 21.37485 | 39.39176 | 4604 ft | 238 kts | 164° |
| 2026-04-29 13:56 | 21.35890 | 39.39362 | 4349 ft | 229 kts | 195° |
| 2026-04-29 13:56 | 21.34506 | 39.38624 | 4099 ft | 222 kts | 227° |
| 2026-04-29 13:57 | 21.33704 | 39.37251 | 3855 ft | 218 kts | 251° |
| 2026-04-29 13:57 | 21.33178 | 39.35722 | 3610 ft | 219 kts | 251° |
| 2026-04-29 13:57 | 21.32650 | 39.34188 | 3367 ft | 219 kts | 253° |
| 2026-04-29 13:57 | 21.32540 | 39.32604 | 3124 ft | 214 kts | 287° |
| 2026-04-29 13:58 | 21.33314 | 39.31310 | 3032 ft | 205 kts | 322° |
| 2026-04-29 13:58 | 21.34553 | 39.30662 | 3045 ft | 200 kts | 338° |
| 2026-04-29 13:58 | 21.35870 | 39.30151 | 3039 ft | 207 kts | 338° |
| 2026-04-29 13:58 | 21.37239 | 39.29618 | 3033 ft | 211 kts | 338° |
| 2026-04-29 13:59 | 21.38616 | 39.29080 | 3029 ft | 211 kts | 338° |
| 2026-04-29 13:59 | 21.39992 | 39.28540 | 3028 ft | 211 kts | 337° |
| 2026-04-29 13:59 | 21.41371 | 39.27997 | 3028 ft | 211 kts | 338° |
| 2026-04-29 13:59 | 21.42751 | 39.27457 | 3027 ft | 211 kts | 338° |
| 2026-04-29 14:00 | 21.44131 | 39.26914 | 3020 ft | 212 kts | 337° |
| 2026-04-29 14:00 | 21.45495 | 39.26379 | 3018 ft | 211 kts | 338° |
| 2026-04-29 14:00 | 21.46868 | 39.25838 | 3019 ft | 211 kts | 338° |
| 2026-04-29 14:00 | 21.48245 | 39.25297 | 3022 ft | 210 kts | 338° |
| 2026-04-29 14:01 | 21.49588 | 39.24770 | 3009 ft | 201 kts | 337° |
| 2026-04-29 14:01 | 21.50896 | 39.24255 | 3009 ft | 199 kts | 337° |
| 2026-04-29 14:01 | 21.52188 | 39.23747 | 2973 ft | 198 kts | 337° |
| 2026-04-29 14:01 | 21.53452 | 39.23250 | 2795 ft | 190 kts | 337° |
| 2026-04-29 14:02 | 21.54656 | 39.22777 | 2547 ft | 179 kts | 338° |
| 2026-04-29 14:02 | 21.55772 | 39.22337 | 2325 ft | 167 kts | 338° |
| 2026-04-29 14:02 | 21.56826 | 39.21923 | 2111 ft | 157 kts | 338° |
| 2026-04-29 14:02 | 21.57813 | 39.21534 | 1900 ft | 145 kts | 339° |
| 2026-04-29 14:03 | 21.58737 | 39.21170 | 1722 ft | 139 kts | 339° |
| 2026-04-29 14:03 | 21.59638 | 39.20815 | 1535 ft | 137 kts | 339° |
| 2026-04-29 14:03 | 21.60522 | 39.20467 | 1368 ft | 134 kts | 339° |
| 2026-04-29 14:03 | 21.61394 | 39.20123 | 1191 ft | 133 kts | 340° |
| 2026-04-29 14:04 | 21.62265 | 39.19780 | 1013 ft | 133 kts | 340° |
| 2026-04-29 14:04 | 21.63123 | 39.19442 | 833 ft | 133 kts | 340° |
| 2026-04-29 14:04 | 21.63990 | 39.19101 | 660 ft | 133 kts | 340° |
| 2026-04-29 14:04 | 21.64868 | 39.18754 | 480 ft | 135 kts | 340° |
| 2026-04-29 14:05 | 21.65752 | 39.18402 | 278 ft | 136 kts | 340° |
| 2026-04-29 14:05 | 21.66637 | 39.18049 | 85 ft | 136 kts | 340° |
| 2026-04-29 14:05 | 21.67453 | 39.17731 | 30 ft | 104 kts | 340° |
| 2026-04-29 14:05 | 21.67973 | 39.17529 | 32 ft | 55 kts | 340° |
| 2026-04-29 14:06 | 21.68204 | 39.17433 | 28 ft | 27 kts | 332° |
| 2026-04-29 14:06 | 21.68337 | 39.17305 | 26 ft | 27 kts | 315° |
| 2026-04-29 14:06 | 21.68454 | 39.17151 | 27 ft | 21 kts | 306° |
| 2026-04-29 14:06 | 21.68511 | 39.17057 | 27 ft | 10 kts | 271° |
| 2026-04-29 14:07 | 21.68459 | 39.17005 | 28 ft | 11 kts | 185° |
| 2026-04-29 14:07 | 21.68380 | 39.17030 | 30 ft | 13 kts | 161° |
| 2026-04-29 14:07 | 21.68285 | 39.17067 | 30 ft | 16 kts | 159° |
| 2026-04-29 14:07 | 21.68172 | 39.17113 | 30 ft | 19 kts | 160° |
| 2026-04-29 14:08 | 21.68045 | 39.17163 | 30 ft | 21 kts | 160° |
| 2026-04-29 14:08 | 21.67901 | 39.17218 | 30 ft | 23 kts | 160° |
| 2026-04-29 14:08 | 21.67743 | 39.17281 | 30 ft | 26 kts | 160° |
| 2026-04-29 14:08 | 21.67565 | 39.17352 | 30 ft | 28 kts | 160° |
| 2026-04-29 14:09 | 21.67378 | 39.17428 | 30 ft | 29 kts | 160° |
| 2026-04-29 14:09 | 21.67236 | 39.17498 | 30 ft | 10 kts | 182° |
| 2026-04-29 14:09 | 21.67191 | 39.17440 | 30 ft | 12 kts | 253° |
| 2026-04-29 14:09 | 21.67144 | 39.17361 | 30 ft | 14 kts | 222° |
| 2026-04-29 14:10 | 21.67064 | 39.17296 | 30 ft | 15 kts | 209° |
| 2026-04-29 14:10 | 21.66961 | 39.17257 | 30 ft | 14 kts | 188° |
| 2026-04-29 14:10 | 21.66912 | 39.17253 | 30 ft | 3 kts | 180° |
| 2026-04-29 14:10 | 21.66878 | 39.17261 | 30 ft | 6 kts | 165° |
| 2026-04-29 14:11 | 21.66843 | 39.17249 | 30 ft | 6 kts | 231° |
| 2026-04-29 14:11 | 21.66837 | 39.17201 | 30 ft | 4 kts | 276° |
| 2026-04-29 14:11 | 21.66839 | 39.17183 | 30 ft | 2 kts | 278° |
| 2026-04-29 14:11 | 21.66840 | 39.17177 | 30 ft | 0 kts | 278° |